Time;durP1;ratioP1;P1;durP2;ratioP2;P2;SDS_P1;SDS_P2;PMS_P1;PMS_P2;Temp;Humidity;BMP_temperature;BMP_pressure;BME280_temperature;BME280_humidity;BME280_pressure;Samples;Min_cycle;Max_cycle;Signal;HPM_P1;HPM_P2
2021/03/24 00:04:07;;;;;;;4.33;1.55;;;;;;;1.34;54.01;100117.01;1834730;77;26429;-59
2021/03/24 00:06:35;;;;;;;3.72;1.87;;;;;;;1.28;53.96;100119.47;1727441;82;21147;-59
2021/03/24 00:09:08;;;;;;;3.90;2.10;;;;;;;1.26;54.00;100119.45;1713611;84;21174;-59
2021/03/24 00:11:37;;;;;;;3.47;1.87;;;;;;;1.24;54.14;100115.05;1724779;83;21652;-61
2021/03/24 00:14:06;;;;;;;5.42;1.60;;;;;;;1.23;54.12;100119.78;1725716;83;21151;-61
2021/03/24 00:16:34;;;;;;;4.12;1.67;;;;;;;1.19;54.12;100110.64;1722634;83;21184;-61
2021/03/24 00:19:03;;;;;;;3.22;1.55;;;;;;;1.19;54.24;100114.53;1698230;83;21187;-61
2021/03/24 00:28:39;;;;;;;2.77;1.57;;;;;;;1.19;54.51;100116.27;1828821;77;22138;-59
2021/03/24 00:31:06;;;;;;;4.08;1.80;;;;;;;1.16;54.53;100118.35;1789552;80;21168;-59
2021/03/24 00:33:35;;;;;;;4.37;1.70;;;;;;;1.17;54.54;100118.81;1786635;80;21277;-59
2021/03/24 00:36:04;;;;;;;3.95;2.58;;;;;;;1.16;54.61;100118.79;1774140;80;21145;-59
2021/03/24 00:38:31;;;;;;;4.30;1.62;;;;;;;1.13;54.67;100116.13;1775456;80;21169;-59
2021/03/24 00:40:59;;;;;;;4.30;1.47;;;;;;;1.14;54.72;100116.58;1761856;80;21620;-59
2021/03/24 00:43:27;;;;;;;3.27;1.62;;;;;;;1.12;54.66;100117.83;1768590;80;21129;-59
2021/03/24 00:45:55;;;;;;;5.20;1.50;;;;;;;1.12;54.62;100118.27;1763714;80;21169;-59
2021/03/24 00:48:32;;;;;;;2.55;1.27;;;;;;;1.12;54.65;100122.16;1758174;81;21593;-59
2021/03/24 00:51:01;;;;;;;3.62;1.40;;;;;;;1.09;54.72;100120.79;1728550;82;21134;-61
2021/03/24 00:53:28;;;;;;;3.60;2.00;;;;;;;1.04;54.71;100122.85;1734843;82;21546;-61
2021/03/24 00:55:56;;;;;;;3.62;1.45;;;;;;;1.03;54.64;100119.80;1743845;81;21165;-61
2021/03/24 00:58:24;;;;;;;3.70;1.80;;;;;;;1.01;54.75;100125.37;1728621;83;21336;-61
2021/03/24 01:00:51;;;;;;;4.45;1.90;;;;;;;1.01;54.71;100119.33;1718279;82;21617;-61
2021/03/24 01:03:19;;;;;;;3.55;1.75;;;;;;;1.03;54.79;100122.83;1732129;81;21612;-61
2021/03/24 01:05:49;;;;;;;4.65;1.70;;;;;;;1.02;54.74;100124.97;1747928;81;21135;-61
2021/03/24 01:08:23;;;;;;;4.37;1.87;;;;;;;1.02;54.81;100119.34;1758167;81;21565;-60
2021/03/24 01:10:52;;;;;;;3.98;1.80;;;;;;;1.02;54.90;100121.08;1748827;80;21188;-61
2021/03/24 01:13:20;;;;;;;4.85;2.25;;;;;;;1.04;54.91;100124.59;1717463;82;21203;-61
2021/03/24 01:15:48;;;;;;;4.55;1.98;;;;;;;1.02;54.93;100129.72;1728066;83;21179;-61
2021/03/24 01:18:17;;;;;;;3.45;1.57;;;;;;;1.00;54.82;100130.54;1728459;83;21218;-61
2021/03/24 01:20:45;;;;;;;4.15;2.58;;;;;;;0.93;54.81;100120.87;1722126;82;21131;-61
2021/03/24 01:23:14;;;;;;;4.08;2.02;;;;;;;0.91;54.95;100127.73;1734932;81;21162;-61
2021/03/24 01:25:42;;;;;;;5.03;2.12;;;;;;;0.85;54.85;100128.48;1725330;83;21178;-61
2021/03/24 01:28:22;;;;;;;3.70;2.08;;;;;;;0.82;55.10;100129.27;1712952;82;21156;-61
2021/03/24 01:30:49;;;;;;;3.77;1.72;;;;;;;0.80;55.11;100135.27;1712900;84;21179;-60
2021/03/24 01:33:19;;;;;;;5.47;2.10;;;;;;;0.78;55.18;100129.17;1773268;80;21091;-60
2021/03/24 01:35:46;;;;;;;3.10;1.80;;;;;;;0.80;55.32;100130.94;1783915;80;21184;-61
2021/03/24 01:38:14;;;;;;;3.00;1.85;;;;;;;0.80;55.26;100130.94;1770268;81;21297;-61
2021/03/24 01:40:45;;;;;;;4.35;1.87;;;;;;;0.82;55.28;100139.63;1749158;81;21629;-61
2021/03/24 01:43:23;;;;;;;4.83;2.05;;;;;;;0.83;55.44;100132.75;1774154;81;21178;-61
2021/03/24 01:46:26;;;;;;;4.85;2.00;;;;;;;0.86;55.45;100142.75;1779085;81;21272;-61
2021/03/24 01:48:59;;;;;;;5.40;2.17;;;;;;;0.91;55.64;100135.50;1752135;81;21147;-62
2021/03/24 01:51:33;;;;;;;3.02;1.75;;;;;;;0.95;55.83;100137.33;1754742;81;21676;-60
2021/03/24 01:54:02;;;;;;;4.12;1.98;;;;;;;1.04;55.97;100137.55;1747712;82;21151;-61
2021/03/24 01:56:30;;;;;;;4.92;2.35;;;;;;;1.12;56.05;100135.12;1748879;80;21130;-60
2021/03/24 01:58:59;;;;;;;5.15;2.75;;;;;;;1.17;56.18;100142.14;1781292;80;21162;-60
2021/03/24 02:01:28;;;;;;;3.72;2.02;;;;;;;1.19;56.30;100129.23;1731695;80;21154;-60
2021/03/24 02:03:56;;;;;;;4.87;1.90;;;;;;;1.28;56.14;100142.80;1762464;80;21111;-60
2021/03/24 02:06:56;;;;;;;4.62;2.12;;;;;;;1.32;55.98;100148.52;1760432;80;21149;-60
2021/03/24 02:09:35;;;;;;;3.20;1.70;;;;;;;1.34;56.00;100149.42;1755127;81;21158;-60
2021/03/24 02:12:19;;;;;;;4.92;2.12;;;;;;;1.36;55.99;100155.52;1748259;82;21577;-60
2021/03/24 02:14:57;;;;;;;5.53;2.10;;;;;;;1.38;56.00;100152.54;1755882;80;21321;-60
2021/03/24 02:17:28;;;;;;;5.85;1.95;;;;;;;1.42;56.12;100157.36;1758438;80;21166;-60
2021/03/24 02:20:13;;;;;;;5.47;1.85;;;;;;;1.50;56.07;100155.81;1749559;81;21184;-60
2021/03/24 02:22:51;;;;;;;4.72;2.10;;;;;;;1.53;56.00;100154.58;1756198;80;21138;-60
2021/03/24 02:25:33;;;;;;;3.98;2.05;;;;;;;1.54;56.05;100155.47;1774270;79;21574;-60
2021/03/24 02:28:03;;;;;;;4.47;2.42;;;;;;;1.57;56.18;100158.10;1760991;81;21590;-60
2021/03/24 02:30:35;;;;;;;4.10;2.58;;;;;;;1.59;56.15;100154.71;1748094;81;21328;-60
2021/03/24 02:33:10;;;;;;;5.97;2.92;;;;;;;1.63;56.17;100150.45;1759651;80;21154;-60
2021/03/24 02:35:44;;;;;;;4.47;2.12;;;;;;;1.67;56.10;100152.70;1781545;80;21654;-60
2021/03/24 02:38:12;;;;;;;4.95;2.05;;;;;;;1.68;56.00;100152.72;1759330;80;21194;-60
2021/03/24 02:40:41;;;;;;;4.10;2.17;;;;;;;1.68;55.94;100149.27;1779202;79;21301;-60
2021/03/24 02:43:11;;;;;;;5.37;2.37;;;;;;;1.65;55.85;100148.76;1771893;80;21163;-60
2021/03/24 02:45:43;;;;;;;3.52;2.17;;;;;;;1.63;55.86;100148.75;1767846;81;21192;-60
2021/03/24 02:48:26;;;;;;;5.05;2.30;;;;;;;1.63;55.79;100141.37;1748446;82;21155;-60
2021/03/24 02:50:57;;;;;;;5.62;2.22;;;;;;;1.56;55.81;100140.78;1753971;81;21187;-60
2021/03/24 02:53:26;;;;;;;4.85;2.80;;;;;;;1.55;55.85;100142.92;1782812;80;21154;-60
2021/03/24 02:55:56;;;;;;;5.47;2.95;;;;;;;1.53;55.85;100145.94;1754138;81;21471;-60
2021/03/24 02:58:24;;;;;;;5.95;2.90;;;;;;;1.51;55.90;100148.92;1748237;82;21163;-60
2021/03/24 03:00:52;;;;;;;5.40;2.70;;;;;;;1.47;56.00;100151.85;1764467;81;21156;-60
2021/03/24 03:03:29;;;;;;;5.55;2.75;;;;;;;1.48;56.04;100147.12;1776419;80;21127;-60
2021/03/24 03:05:58;;;;;;;4.20;2.80;;;;;;;1.51;56.08;100143.30;1759246;80;21170;-60
2021/03/24 03:08:33;;;;;;;4.83;2.45;;;;;;;1.48;56.22;100149.31;1777000;81;21594;-60
2021/03/24 03:11:35;;;;;;;3.67;1.92;;;;;;;1.43;56.15;100148.33;1754655;80;21138;-60
2021/03/24 03:14:15;;;;;;;6.25;2.55;;;;;;;1.42;56.30;100154.36;1728736;80;21146;-60
2021/03/24 03:16:56;;;;;;;5.20;2.30;;;;;;;1.40;56.45;100144.38;1744922;82;21182;-60
2021/03/24 03:19:38;;;;;;;5.37;2.10;;;;;;;1.38;56.71;100149.95;1765113;79;21142;-60
2021/03/24 03:22:22;;;;;;;5.45;2.35;;;;;;;1.42;56.75;100149.58;1769040;80;21191;-60
2021/03/24 03:24:54;;;;;;;7.87;2.67;;;;;;;1.45;56.81;100147.05;1748426;81;21611;-60
2021/03/24 03:27:24;;;;;;;4.00;2.50;;;;;;;1.51;56.82;100148.92;1753244;81;21112;-60
2021/03/24 03:29:51;;;;;;;4.87;2.55;;;;;;;1.55;56.87;100142.92;1751717;80;21123;-60
2021/03/24 03:32:20;;;;;;;3.98;2.20;;;;;;;1.59;56.90;100148.63;1754627;80;21138;-60
2021/03/24 03:34:52;;;;;;;3.35;2.12;;;;;;;1.61;56.91;100144.34;1748301;81;21143;-60
2021/03/24 03:37:22;;;;;;;5.00;2.67;;;;;;;1.63;56.97;100146.16;1754655;81;21700;-60
2021/03/24 03:39:49;;;;;;;3.83;2.13;;;;;;;1.61;56.86;100145.24;1751879;79;21293;-60
2021/03/24 03:42:17;;;;;;;6.70;2.83;;;;;;;1.52;57.08;100141.59;1778760;80;21137;-60
2021/03/24 03:44:45;;;;;;;4.08;2.35;;;;;;;1.48;57.10;100145.83;1778026;80;21186;-60
2021/03/24 03:47:13;;;;;;;5.00;2.77;;;;;;;1.44;57.20;100147.89;1753776;81;21194;-60
2021/03/24 03:49:41;;;;;;;6.05;3.08;;;;;;;1.38;57.26;100149.06;1765748;80;21143;-61
2021/03/24 03:52:16;;;;;;;4.47;2.80;;;;;;;1.37;57.10;100156.38;1779400;81;21182;-60
2021/03/24 03:55:08;;;;;;;5.12;2.77;;;;;;;1.34;57.03;100160.66;1766020;80;21321;-61
2021/03/24 03:57:50;;;;;;;4.40;2.52;;;;;;;1.26;57.25;100149.27;1777518;81;21467;-60
2021/03/24 04:00:25;;;;;;;4.90;2.67;;;;;;;1.26;57.14;100149.67;1769952;80;21154;-60
2021/03/24 04:03:12;;;;;;;5.47;2.70;;;;;;;1.24;57.16;100155.25;1784860;80;21601;-60
2021/03/24 04:05:48;;;;;;;4.33;2.40;;;;;;;1.19;57.10;100156.45;1779479;80;21188;-60
2021/03/24 04:08:20;;;;;;;3.90;2.55;;;;;;;1.15;57.11;100158.52;1776033;80;21122;-60
2021/03/24 04:10:57;;;;;;;4.30;2.37;;;;;;;1.12;57.09;100163.63;1784204;80;21168;-60
2021/03/24 04:13:28;;;;;;;6.30;2.77;;;;;;;1.08;57.19;100162.70;1774673;80;21143;-60
2021/03/24 04:15:58;;;;;;;7.50;2.60;;;;;;;1.10;57.18;100159.72;1777182;81;21130;-60
2021/03/24 04:18:42;;;;;;;5.55;2.50;;;;;;;1.15;57.17;100159.81;1760255;80;21111;-60
2021/03/24 04:21:11;;;;;;;7.05;2.50;;;;;;;1.20;57.13;100167.28;1779581;80;21134;-60
2021/03/24 04:23:43;;;;;;;3.72;2.35;;;;;;;1.21;57.14;100161.66;1764851;81;21123;-60
2021/03/24 04:26:23;;;;;;;5.97;2.52;;;;;;;1.22;56.96;100166.89;1764665;80;21115;-60
2021/03/24 04:28:56;;;;;;;6.00;3.00;;;;;;;1.25;56.91;100160.89;1763716;80;21143;-60
2021/03/24 04:31:25;;;;;;;12.70;3.22;;;;;;;1.27;56.91;100162.69;1769640;81;21584;-61
2021/03/24 04:33:53;;;;;;;14.05;4.28;;;;;;;1.28;57.19;100165.73;1762258;81;21175;-60
2021/03/24 04:36:28;;;;;;;6.60;3.22;;;;;;;1.32;57.58;100170.56;1769337;81;21554;-60
2021/03/24 04:38:58;;;;;;;7.55;2.77;;;;;;;1.37;57.31;100162.87;1778560;80;21566;-60
2021/03/24 04:41:29;;;;;;;8.40;3.27;;;;;;;1.42;57.28;100166.44;1776762;80;21406;-60
2021/03/24 04:44:08;;;;;;;4.58;2.55;;;;;;;1.46;57.33;100165.27;1751097;80;21143;-61
2021/03/24 04:46:39;;;;;;;7.47;2.95;;;;;;;1.50;57.46;100163.59;1740687;81;21506;-61
2021/03/24 04:49:20;;;;;;;5.08;2.80;;;;;;;1.58;57.66;100159.85;1755960;81;21288;-61
2021/03/24 04:51:48;;;;;;;5.00;2.60;;;;;;;1.66;57.84;100164.78;1778849;81;21127;-62
2021/03/24 04:54:23;;;;;;;6.67;2.75;;;;;;;1.74;58.14;100159.77;1756223;81;21617;-61
2021/03/24 04:56:55;;;;;;;6.75;2.98;;;;;;;1.88;58.15;100169.98;1760256;80;21143;-61
2021/03/24 04:59:29;;;;;;;5.28;3.15;;;;;;;1.98;58.05;100161.08;1767410;80;21257;-61
2021/03/24 05:02:04;;;;;;;5.87;3.15;;;;;;;2.06;57.89;100163.41;1761507;80;21574;-61
2021/03/24 05:04:55;;;;;;;5.28;3.08;;;;;;;2.16;58.05;100165.75;1747993;81;21235;-61
2021/03/24 05:07:42;;;;;;;5.62;3.42;;;;;;;2.29;58.01;100166.84;1769794;81;21270;-61
2021/03/24 05:10:23;;;;;;;6.78;3.00;;;;;;;2.41;57.99;100163.17;1778917;81;21171;-61
2021/03/24 05:13:17;;;;;;;4.55;2.95;;;;;;;2.58;58.23;100172.99;1770523;80;21134;-61
2021/03/24 05:16:00;;;;;;;7.30;2.72;;;;;;;2.70;58.36;100170.58;1713346;84;21182;-61
2021/03/24 05:18:27;;;;;;;5.80;3.50;;;;;;;2.93;58.29;100173.55;1777859;80;21529;-52
2021/03/24 05:21:04;;;;;;;5.47;3.08;;;;;;;3.17;58.10;100177.80;1752173;81;21156;-51
2021/03/24 05:23:32;;;;;;;7.25;3.60;;;;;;;3.15;57.92;100176.89;1774299;80;21293;-52
2021/03/24 05:26:15;;;;;;;14.33;6.70;;;;;;;3.21;58.21;100175.69;1772008;80;21570;-53
2021/03/24 05:28:46;;;;;;;20.85;10.72;;;;;;;3.33;58.07;100179.77;1761968;79;21282;-53
2021/03/24 05:31:17;;;;;;;18.60;10.93;;;;;;;3.37;58.22;100185.88;1772094;80;21166;-52
2021/03/24 05:33:49;;;;;;;20.10;10.95;;;;;;;3.39;58.02;100181.58;1740332;82;21142;-52
2021/03/24 05:36:22;;;;;;;279.52;27.42;;;;;;;3.50;58.16;100186.51;1713219;83;21190;-54
2021/03/24 05:38:51;;;;;;;30.62;7.42;;;;;;;3.61;58.06;100186.64;1772728;80;21139;-51
2021/03/24 05:41:45;;;;;;;15.30;6.10;;;;;;;3.76;57.82;100186.41;1754425;80;21729;-51
2021/03/24 05:45:05;;;;;;;12.03;5.40;;;;;;;3.79;57.84;100186.00;1782782;80;21122;-52
2021/03/24 05:48:03;;;;;;;10.68;5.08;;;;;;;3.89;58.00;100183.52;1762617;80;21955;-53
2021/03/24 05:50:58;;;;;;;6.70;4.05;;;;;;;4.08;58.59;100183.30;1756192;81;21200;-51
2021/03/24 05:54:00;;;;;;;5.85;3.58;;;;;;;4.15;58.42;100173.39;1771035;80;21609;-52
2021/03/24 05:56:56;;;;;;;5.10;3.20;;;;;;;4.26;57.76;100176.99;1760526;79;21574;-52
2021/03/24 05:59:39;;;;;;;5.22;3.65;;;;;;;4.37;57.31;100178.39;1785643;80;21135;-65
2021/03/24 06:02:21;;;;;;;6.17;3.30;;;;;;;4.36;57.38;100184.46;1760338;80;21657;-65
2021/03/24 06:05:02;;;;;;;7.70;3.47;;;;;;;4.33;57.29;100177.91;1789634;80;21138;-66
2021/03/24 06:08:13;;;;;;;5.37;3.47;;;;;;;4.26;57.31;100183.92;1757742;80;21570;-65
2021/03/24 06:11:16;;;;;;;6.30;3.35;;;;;;;4.33;57.65;100177.06;1762756;80;21154;-65
2021/03/24 06:14:11;;;;;;;6.28;3.62;;;;;;;4.42;57.10;100179.31;1775219;80;21157;-51
2021/03/24 06:17:12;;;;;;;6.85;4.15;;;;;;;4.43;57.09;100179.77;1778048;80;21622;-52
2021/03/24 06:20:10;;;;;;;5.83;3.70;;;;;;;4.47;57.10;100175.44;1784464;80;21297;-63
2021/03/24 06:23:09;;;;;;;6.22;3.90;;;;;;;4.49;57.37;100178.94;1701868;82;21243;-63
2021/03/24 06:26:04;;;;;;;4.83;3.42;;;;;;;4.42;57.50;100179.73;1773762;80;21540;-63
2021/03/24 06:28:43;;;;;;;25.12;5.92;;;;;;;4.41;58.00;100184.08;1732307;81;21132;-63
2021/03/24 06:31:28;;;;;;;6.72;3.98;;;;;;;4.46;58.02;100183.70;1761820;80;21653;-64
2021/03/24 06:34:08;;;;;;;14.98;4.65;;;;;;;4.56;57.90;100185.95;1782633;80;21161;-64
2021/03/24 06:36:53;;;;;;;7.10;3.33;;;;;;;4.64;58.14;100182.11;1792385;80;21102;-64
2021/03/24 06:39:33;;;;;;;8.40;4.70;;;;;;;4.60;58.37;100178.61;1792598;80;21161;-64
2021/03/24 06:42:21;;;;;;;8.83;4.15;;;;;;;4.67;58.40;100179.52;1793134;80;21518;-64
2021/03/24 06:45:21;;;;;;;11.38;4.28;;;;;;;4.69;58.35;100177.80;1772751;80;21150;-64
2021/03/24 06:48:12;;;;;;;7.35;3.92;;;;;;;4.71;58.71;100175.23;1777303;80;21641;-64
2021/03/24 06:51:13;;;;;;;7.15;4.70;;;;;;;4.86;58.72;100177.94;1779989;80;21179;-64
2021/03/24 06:54:22;;;;;;;7.03;4.47;;;;;;;4.94;58.81;100177.13;1725443;81;21593;-63
2021/03/24 06:57:24;;;;;;;6.00;4.00;;;;;;;4.87;58.75;100186.20;1718653;82;21127;-62
2021/03/24 07:00:41;;;;;;;7.33;5.03;;;;;;;4.84;58.21;100182.72;1758456;80;21181;-62
2021/03/24 07:03:30;;;;;;;7.75;4.47;;;;;;;4.90;58.36;100183.63;1782941;80;21138;-62
2021/03/24 07:06:19;;;;;;;6.50;4.40;;;;;;;4.99;58.19;100189.78;1763554;80;21106;-62
2021/03/24 07:09:14;;;;;;;6.08;3.65;;;;;;;5.08;58.04;100186.39;1791569;80;21146;-62
2021/03/24 07:12:06;;;;;;;8.85;4.80;;;;;;;5.05;57.43;100193.33;1792854;80;21145;-63
2021/03/24 07:14:47;;;;;;;6.47;4.22;;;;;;;5.03;57.55;100198.08;1774606;79;21270;-63
2021/03/24 07:17:39;;;;;;;9.33;5.87;;;;;;;4.96;57.99;100193.67;1787856;80;21125;-64
2021/03/24 07:20:27;;;;;;;21.48;10.55;;;;;;;5.08;57.94;100196.83;1770224;80;21285;-63
2021/03/24 07:23:24;;;;;;;24.10;12.95;;;;;;;5.13;57.64;100200.31;1792197;80;21115;-63
2021/03/24 07:26:19;;;;;;;12.88;7.58;;;;;;;5.16;57.67;100202.53;1792093;80;21522;-63
2021/03/24 07:29:06;;;;;;;11.28;8.15;;;;;;;5.19;57.94;100194.73;1761894;80;21620;-63
2021/03/24 07:32:08;;;;;;;8.75;5.97;;;;;;;5.34;57.67;100195.67;1755192;80;21659;-63
2021/03/24 07:35:02;;;;;;;7.30;5.75;;;;;;;5.26;57.69;100206.52;1786636;80;21170;-63
2021/03/24 07:37:56;;;;;;;10.90;7.03;;;;;;;5.29;57.69;100203.48;1787313;80;21514;-63
2021/03/24 07:40:41;;;;;;;11.25;7.42;;;;;;;5.35;57.64;100204.83;1773426;80;21179;-63
2021/03/24 07:43:25;;;;;;;16.87;11.60;;;;;;;5.44;57.55;100205.75;1759584;80;21546;-63
2021/03/24 07:46:17;;;;;;;26.48;17.17;;;;;;;5.48;57.56;100211.44;1762858;80;21194;-63
2021/03/24 07:49:34;;;;;;;13.83;9.63;;;;;;;5.52;57.57;100210.56;1753058;82;21143;-63
2021/03/24 07:52:27;;;;;;;10.30;7.12;;;;;;;5.54;57.82;100213.20;1761495;80;21553;-63
2021/03/24 07:55:37;;;;;;;12.37;8.18;;;;;;;5.62;57.80;100216.73;1764134;80;21176;-63
2021/03/24 07:58:34;;;;;;;15.90;10.90;;;;;;;5.66;57.54;100217.19;1749950;82;21565;-64
2021/03/24 08:01:30;;;;;;;11.68;8.78;;;;;;;5.70;57.51;100219.38;1754577;80;21584;-64
2021/03/24 08:04:30;;;;;;;12.23;7.62;;;;;;;5.70;57.54;100221.98;1784730;80;21198;-63
2021/03/24 08:07:27;;;;;;;11.05;7.80;;;;;;;5.71;57.60;100225.03;1788944;80;21150;-63
2021/03/24 08:10:22;;;;;;;14.30;8.80;;;;;;;5.72;57.63;100230.70;1769964;80;21162;-63
2021/03/24 08:13:15;;;;;;;18.32;11.40;;;;;;;5.73;57.76;100231.14;1781645;80;21569;-62
2021/03/24 08:16:30;;;;;;;14.85;10.08;;;;;;;5.78;57.77;100228.98;1787165;79;21167;-63
2021/03/24 08:19:07;;;;;;;36.30;19.57;;;;;;;5.81;57.79;100234.22;1784893;80;21285;-62
2021/03/24 08:22:12;;;;;;;358.65;167.50;;;;;;;5.90;58.11;100234.72;1761321;80;21641;-62
2021/03/24 08:25:10;;;;;;;106.67;51.08;;;;;;;6.03;58.47;100231.75;1749475;80;21139;-62
2021/03/24 08:28:08;;;;;;;701.95;457.82;;;;;;;6.21;58.70;100233.97;1770975;80;21158;-62
2021/03/24 08:31:21;;;;;;;635.45;401.02;;;;;;;6.39;58.87;100227.95;1753699;80;21107;-62
2021/03/24 08:34:03;;;;;;;364.38;228.73;;;;;;;6.67;59.32;100226.69;1741761;82;21143;-62
2021/03/24 08:36:55;;;;;;;327.87;222.63;;;;;;;6.91;58.06;100229.77;1778444;79;21166;-62
2021/03/24 08:39:29;;;;;;;216.65;156.50;;;;;;;6.88;57.79;100225.84;1741891;82;21639;-62
2021/03/24 08:42:34;;;;;;;177.00;128.02;;;;;;;6.93;57.67;100225.41;1779218;80;21542;-63
2021/03/24 08:45:29;;;;;;;157.10;119.13;;;;;;;6.91;57.01;100228.45;1754312;81;21597;-62
2021/03/24 08:48:01;;;;;;;60.17;43.08;;;;;;;6.88;56.71;100233.69;1712186;84;21199;-62
2021/03/24 08:50:34;;;;;;;42.75;28.30;;;;;;;6.85;56.73;100234.53;1774414;80;21142;-62
2021/03/24 08:53:40;;;;;;;24.80;18.30;;;;;;;6.93;57.13;100233.25;1772750;80;21143;-62
2021/03/24 08:56:28;;;;;;;25.45;15.88;;;;;;;7.06;57.00;100238.50;1757551;80;21123;-62
2021/03/24 08:59:39;;;;;;;24.95;15.35;;;;;;;7.18;57.11;100233.23;1712953;83;21290;-64
2021/03/24 09:02:40;;;;;;;38.25;34.03;;;;;;;7.24;56.91;100229.30;1694064;84;21155;-64
2021/03/24 09:05:36;;;;;;;47.88;22.27;;;;;;;7.35;57.01;100246.30;1748538;82;21533;-63
2021/03/24 09:08:27;;;;;;;52.53;18.80;;;;;;;7.46;56.89;100248.93;1750634;80;21147;-62
2021/03/24 09:11:22;;;;;;;21.62;10.55;;;;;;;7.63;57.16;100242.34;1771943;81;21152;-63
2021/03/24 09:14:00;;;;;;;25.17;10.23;;;;;;;7.73;57.26;100241.42;1720429;82;21767;-63
2021/03/24 09:16:55;;;;;;;16.67;9.38;;;;;;;7.92;57.30;100242.69;1712567;84;21606;-63
2021/03/24 09:20:15;;;;;;;13.83;8.78;;;;;;;8.12;57.32;100242.61;1756679;81;21669;-63
2021/03/24 09:23:07;;;;;;;9.73;7.00;;;;;;;8.19;56.67;100240.81;1767579;80;21506;-62
2021/03/24 09:25:44;;;;;;;10.72;6.53;;;;;;;8.19;56.23;100249.56;1784361;80;21175;-62
2021/03/24 09:28:48;;;;;;;10.50;7.90;;;;;;;8.21;56.03;100246.07;1781658;80;21131;-63
2021/03/24 09:31:33;;;;;;;10.55;7.80;;;;;;;8.22;55.75;100241.26;1786510;80;21143;-62
2021/03/24 09:34:39;;;;;;;12.00;8.85;;;;;;;8.19;55.93;100248.68;1787204;80;21593;-62
2021/03/24 09:37:14;;;;;;;15.80;8.93;;;;;;;8.18;55.49;100245.20;1787093;80;21151;-62
2021/03/24 09:39:59;;;;;;;10.35;8.05;;;;;;;8.25;55.94;100248.66;1786835;80;21118;-62
2021/03/24 09:42:35;;;;;;;9.13;7.45;;;;;;;8.32;56.11;100239.88;1787259;80;21280;-62
2021/03/24 09:45:20;;;;;;;11.63;7.22;;;;;;;8.38;55.59;100242.05;1787471;80;21123;-62
2021/03/24 09:48:09;;;;;;;9.35;7.10;;;;;;;8.43;55.81;100249.45;1785890;80;21170;-62
2021/03/24 09:50:45;;;;;;;8.58;6.53;;;;;;;8.48;55.18;100247.68;1787163;80;21191;-62
2021/03/24 09:53:24;;;;;;;11.33;9.50;;;;;;;8.50;54.58;100246.38;1787208;80;21589;-62
2021/03/24 09:56:04;;;;;;;12.75;9.68;;;;;;;8.48;54.79;100244.63;1787280;79;21096;-62
2021/03/24 09:58:59;;;;;;;14.28;9.78;;;;;;;8.51;54.18;100242.45;1790521;79;21154;-62
2021/03/24 10:02:14;;;;;;;20.55;12.33;;;;;;;8.50;54.14;100247.27;1789459;79;21545;-62
2021/03/24 10:04:55;;;;;;;16.85;10.85;;;;;;;8.51;54.27;100245.08;1751353;82;21150;-62
2021/03/24 10:07:26;;;;;;;14.40;9.75;;;;;;;8.49;54.21;100253.39;1774093;80;21565;-63
2021/03/24 10:10:04;;;;;;;12.85;10.23;;;;;;;8.51;55.21;100250.32;1787056;80;21750;-63
2021/03/24 10:12:58;;;;;;;12.30;8.90;;;;;;;8.69;56.54;100246.70;1721675;82;21289;-63
2021/03/24 10:15:47;;;;;;;13.00;9.68;;;;;;;9.06;57.21;100251.68;1703386;83;21584;-63
2021/03/24 10:18:35;;;;;;;13.50;9.90;;;;;;;9.48;57.33;100246.06;1677682;83;21664;-63
2021/03/24 10:21:29;;;;;;;11.33;8.60;;;;;;;9.90;56.15;100244.75;1732127;83;21606;-63
2021/03/24 10:24:03;;;;;;;11.40;7.58;;;;;;;10.23;55.91;100247.37;1717422;82;21162;-64
2021/03/24 10:26:52;;;;;;;13.28;8.63;;;;;;;10.47;54.91;100244.47;1727210;83;21292;-63
2021/03/24 10:29:34;;;;;;;11.65;9.68;;;;;;;10.67;54.74;100234.54;1716113;83;21590;-64
2021/03/24 10:32:21;;;;;;;10.28;7.80;;;;;;;10.86;53.64;100237.75;1685077;85;21163;-64
2021/03/24 10:34:52;;;;;;;9.58;7.00;;;;;;;10.97;53.30;100230.14;1640559;85;21201;-64
2021/03/24 10:37:54;;;;;;;8.80;7.00;;;;;;;11.11;52.68;100233.39;1687230;85;21695;-64
2021/03/24 10:40:35;;;;;;;7.42;5.62;;;;;;;11.29;53.20;100232.67;1692331;83;21634;-64
2021/03/24 10:43:29;;;;;;;8.25;6.83;;;;;;;11.68;51.66;100222.75;1715601;83;21107;-64
2021/03/24 10:46:26;;;;;;;7.72;5.95;;;;;;;12.03;52.40;100226.47;1701014;84;21203;-64
2021/03/24 10:49:01;;;;;;;6.72;5.80;;;;;;;12.33;50.29;100220.11;1703236;84;21202;-63
2021/03/24 10:52:15;;;;;;;8.65;6.15;;;;;;;12.41;48.63;100223.45;1705967;82;21165;-64
2021/03/24 10:54:42;;;;;;;7.92;6.03;;;;;;;12.41;49.07;100222.56;1747542;82;21645;-64
2021/03/24 10:57:57;;;;;;;8.80;6.05;;;;;;;12.28;47.38;100228.57;1762441;81;21119;-64
2021/03/24 11:00:45;;;;;;;7.50;5.87;;;;;;;12.10;47.64;100234.68;1756138;81;21885;-64
2021/03/24 11:03:27;;;;;;;7.00;6.05;;;;;;;11.80;47.94;100234.81;1746133;82;21592;-64
2021/03/24 11:06:13;;;;;;;6.47;5.47;;;;;;;11.52;48.32;100237.52;1746139;82;21617;-62
2021/03/24 11:08:56;;;;;;;10.98;5.87;;;;;;;11.33;49.04;100239.63;1740048;82;21160;-62
2021/03/24 11:11:33;;;;;;;6.83;5.37;;;;;;;11.16;48.65;100239.45;1740517;82;21525;-62
2021/03/24 11:14:07;;;;;;;7.83;4.80;;;;;;;10.93;49.00;100241.61;1690512;82;21163;-62
2021/03/24 11:16:43;;;;;;;5.62;4.28;;;;;;;10.73;49.04;100244.56;1745158;82;21193;-63
2021/03/24 11:19:24;;;;;;;5.85;4.10;;;;;;;10.54;49.37;100238.23;1738103;82;21147;-63
2021/03/24 11:22:25;;;;;;;5.80;3.72;;;;;;;10.47;49.05;100243.16;1747539;82;21535;-63
2021/03/24 11:25:01;;;;;;;4.70;3.77;;;;;;;10.34;48.71;100242.00;1746950;82;21111;-63
2021/03/24 11:27:58;;;;;;;5.30;4.17;;;;;;;10.15;48.66;100237.43;1748045;82;21565;-63
2021/03/24 11:30:40;;;;;;;5.83;4.25;;;;;;;9.97;48.55;100246.39;1690701;83;21781;-63
2021/03/24 11:33:39;;;;;;;5.28;4.15;;;;;;;8.82;50.58;100257.13;1739968;81;21127;-62
2021/03/24 11:36:26;;;;;;;6.17;4.65;;;;;;;9.37;49.40;100255.34;1744138;81;21143;-62
2021/03/24 11:39:29;;;;;;;5.67;4.40;;;;;;;9.33;49.34;100256.70;1726345;83;21613;-63
2021/03/24 11:42:17;;;;;;;5.25;3.72;;;;;;;9.26;49.10;100251.97;1704175;81;21724;-62
2021/03/24 11:44:47;;;;;;;5.60;3.80;;;;;;;9.06;49.25;100256.05;1745739;81;21297;-62
2021/03/24 11:48:00;;;;;;;5.97;4.03;;;;;;;8.82;49.61;100261.06;1726167;83;21328;-63
2021/03/24 11:51:05;;;;;;;5.35;3.65;;;;;;;8.74;49.76;100256.73;1726159;83;21211;-62
2021/03/24 11:53:59;;;;;;;6.17;4.20;;;;;;;8.69;50.06;100253.27;1729350;82;21163;-62
2021/03/24 11:56:54;;;;;;;7.03;4.78;;;;;;;8.69;50.12;100257.20;1725947;82;21176;-62
2021/03/24 11:59:46;;;;;;;10.00;6.47;;;;;;;8.65;50.62;100255.48;1745259;82;21134;-60
2021/03/24 12:03:14;;;;;;;7.28;5.42;;;;;;;8.63;51.38;100265.11;1749713;82;21146;-62
2021/03/24 12:05:51;;;;;;;6.60;5.10;;;;;;;8.67;51.34;100259.39;1772268;80;21114;-63
2021/03/24 12:08:44;;;;;;;7.65;6.03;;;;;;;8.78;51.39;100253.64;1702190;82;21131;-65
2021/03/24 12:11:24;;;;;;;10.48;8.65;;;;;;;8.82;51.45;100253.19;1749232;80;21171;-65
2021/03/24 12:14:14;;;;;;;10.00;8.13;;;;;;;8.83;51.58;100256.25;1754272;81;21593;-64
2021/03/24 12:16:58;;;;;;;12.53;9.55;;;;;;;8.80;52.02;100246.63;1743846;82;21608;-63
2021/03/24 12:19:42;;;;;;;10.60;9.00;;;;;;;8.87;52.52;100247.02;1753772;80;21253;-64
2021/03/24 12:22:26;;;;;;;10.05;8.10;;;;;;;8.90;53.04;100238.23;1734568;81;21122;-64
2021/03/24 12:25:42;;;;;;;13.85;8.70;;;;;;;9.18;53.15;100232.31;1726367;83;21619;-63
2021/03/24 12:28:11;;;;;;;10.38;8.18;;;;;;;9.50;54.10;100239.47;1697324;83;21694;-64
2021/03/24 12:30:44;;;;;;;16.27;10.60;;;;;;;9.99;54.91;100236.72;1690941;83;21149;-64
2021/03/24 12:33:22;;;;;;;22.15;13.08;;;;;;;10.24;54.18;100239.91;1704404;83;21597;-63
2021/03/24 12:36:09;;;;;;;11.78;8.53;;;;;;;10.52;53.77;100245.28;1719731;83;21304;-65
2021/03/24 12:38:45;;;;;;;9.63;6.20;;;;;;;10.62;52.24;100263.12;1721979;82;21142;-65
2021/03/24 12:41:14;;;;;;;10.18;5.92;;;;;;;10.39;51.28;100265.64;1702977;83;21172;-64
2021/03/24 12:43:44;;;;;;;8.85;6.08;;;;;;;10.03;50.94;100267.36;1688087;85;21168;-64
2021/03/24 12:46:19;;;;;;;10.63;6.83;;;;;;;9.70;51.04;100274.73;1702947;84;21326;-65
2021/03/24 12:48:53;;;;;;;5.97;4.12;;;;;;;9.42;51.21;100278.07;1741817;82;21182;-66
2021/03/24 12:51:36;;;;;;;5.65;4.42;;;;;;;9.28;51.35;100279.52;1717161;82;21582;-65